Garibaldi, OR (97118)

21:15 PDT le 01 septembre 2014 (GMT -0700)
bay view-pacific coast | Change Station
CLOSE
Current Station
Stations météorologiques personnelles
Location: Garibaldi, OR
Altitude: 50 ft
Stations météo à proximité

Alt. 50 ft 45.56 °N, 123.91 °W | Updated 5 minutes ago

Partiellement nuageux
Partiellement nuageux
64.7 ° F
Paraît 64.7 ° F
N
0.0
Vent Variable Vent de Est
Gusts 1.0 mph

Aujourd'hui
Haut(e) -- | Bas -- ° F
--% Risque de précip.
Hier
Haut(e) -- | Bas -- ° F
Precip. -- pouce
6:37 AM 7:53 PM
Lune montante, 47% visible
Pression 30.02 pouce
Visibilité 10.0 Miles terrestres
Nuages Nuages épars 1500 ft
Point de rosée 60 ° F
Humidité 86%
Précipitations 0.00 pouce
Profondeur de la couche neigeuse Non disponible.
UV 0 sur 12
Pollen 3.00 sur 12
Qualité de l'air Non disponible.
Flu Activity Non disponible.
METAR KTMK 020355Z AUTO 00000KT 10SM SCT015 18/16 A3002 RMK AO2

More Conditions Fewer Conditions

Pression 30.02 pouce
Visibilité 10.0 Miles terrestres
Nuages Nuages épars 1500 ft
Point de rosée 60 ° F
Humidité 86%
Précipitations 0.00 pouce
Profondeur de la couche neigeuse Non disponible.
UV 0 sur 12
Pollen 3.00 sur 12
Qualité de l'air Non disponible.
Flu Activity Non disponible.
METAR KTMK 020355Z AUTO 00000KT 10SM SCT015 18/16 A3002 RMK AO2

More Conditions Fewer Conditions

10-Day Weather Forecast

Almanac

Astronomie

Sep. 01, 2014 Lever Coucher
Temps réel 06:37 PDT 19:53 PDT
Crépuscule civil 06:06 PDT 20:23 PDT
Crépuscule nautique 05:29 PDT 21:00 PDT
Crépuscule astronomique 04:50 PDT 21:39 PDT
Lune 13:48 PDT (9/1) 23:38 PDT (9/1)
Durée de lumière visible 14h 17m
Longueur du jour
13h 16m
Tomorrow will be 3m 6s shorter.
Lune montante, 47% of the Moon is Illuminated
Sep 2
Lune montante
Sep 2
Premier quartier
Sep 8
Pleine lune
Sep 15
Dernier quartier
Sep 24
Nouveau

Extrêmes aujourd'hui

State Highs State Lows

Community

WunderPhotos

Upload Photos

1,749,560 Photos téléchargées !

WunderBlogs® & News

Nearby

Épaisseur de neige

Station Depth Altitude
Saddle Mountain 4 in 3250 ft
North Fork 1 in 3120 ft
Blazed Alder 0 in 3650 ft
Peavine Ridge 3 in 3500 ft
Greenpoint 1 in 3200 ft

Activité sismique

Ville Distance Mag. Time & Date
No recent earthquake activity has been reported nearby.
Minimum magnitude displayed is 2.5.

Températures des eaux côtières

Lieu Température
Astoria, OR 70.0 ° F
Westport, WA 61.0 ° F

Stations météo à proximité